sensor_id;sensor_type;location;lat;lon;timestamp;pressure;altitude;pressure_sealevel;temperature;humidity
3132;BME280;62090;52.330;9.104;2023-09-30T00:00:49;101821.31;;;16.37;96.31
3132;BME280;62090;52.330;9.104;2023-09-30T00:03:19;101809.97;;;16.26;95.54
3132;BME280;62090;52.330;9.104;2023-09-30T00:05:50;101825.50;;;16.32;95.84
3132;BME280;62090;52.330;9.104;2023-09-30T00:08:22;101809.66;;;16.11;95.73
3132;BME280;62090;52.330;9.104;2023-09-30T00:10:52;101767.88;;;15.77;95.29
3132;BME280;62090;52.330;9.104;2023-09-30T00:13:22;101825.03;;;16.08;95.24
3132;BME280;62090;52.330;9.104;2023-09-30T00:15:52;101840.66;;;16.17;95.34
3132;BME280;62090;52.330;9.104;2023-09-30T00:18:22;101858.59;;;16.14;94.83
3132;BME280;62090;52.330;9.104;2023-09-30T00:20:52;101853.31;;;16.06;96.94
3132;BME280;62090;52.330;9.104;2023-09-30T00:23:24;101843.81;;;16.03;96.33
3132;BME280;62090;52.330;9.104;2023-09-30T00:25:54;101847.13;;;15.96;96.75
3132;BME280;62090;52.330;9.104;2023-09-30T00:28:24;101823.72;;;15.84;97.05
3132;BME280;62090;52.330;9.104;2023-09-30T00:30:56;101798.81;;;15.80;96.79
3132;BME280;62090;52.330;9.104;2023-09-30T00:33:26;101843.81;;;16.03;96.74
3132;BME280;62090;52.330;9.104;2023-09-30T00:35:56;101849.91;;;16.07;96.27
3132;BME280;62090;52.330;9.104;2023-09-30T00:38:28;101852.44;;;16.05;95.81
3132;BME280;62090;52.330;9.104;2023-09-30T00:40:58;101848.81;;;15.96;95.77
3132;BME280;62090;52.330;9.104;2023-09-30T00:43:28;101755.09;;;15.38;95.40
3132;BME280;62090;52.330;9.104;2023-09-30T00:46:02;101853.06;;;15.94;95.09
3132;BME280;62090;52.330;9.104;2023-09-30T00:48:34;101840.72;;;15.78;94.89
3132;BME280;62090;52.330;9.104;2023-09-30T00:51:05;101846.91;;;15.87;95.63
3132;BME280;62090;52.330;9.104;2023-09-30T00:53:38;101853.66;;;15.82;95.69
3132;BME280;62090;52.330;9.104;2023-09-30T00:56:09;101778.22;;;15.40;95.99
3132;BME280;62090;52.330;9.104;2023-09-30T00:58:39;101855.28;;;15.77;95.92
3132;BME280;62090;52.330;9.104;2023-09-30T01:01:09;101860.34;;;15.74;96.02
3132;BME280;62090;52.330;9.104;2023-09-30T01:03:39;101852.47;;;15.67;96.08
3132;BME280;62090;52.330;9.104;2023-09-30T01:06:11;101812.41;;;15.37;96.65
3132;BME280;62090;52.330;9.104;2023-09-30T01:08:43;101862.78;;;15.68;96.85
3132;BME280;62090;52.330;9.104;2023-09-30T01:11:14;101866.78;;;15.55;97.28
3132;BME280;62090;52.330;9.104;2023-09-30T01:13:44;101863.44;;;15.58;97.05
3132;BME280;62090;52.330;9.104;2023-09-30T01:16:14;101842.50;;;15.43;97.27
3132;BME280;62090;52.330;9.104;2023-09-30T01:18:44;101867.66;;;15.54;98.13
3132;BME280;62090;52.330;9.104;2023-09-30T01:21:15;101827.75;;;15.34;98.50
3132;BME280;62090;52.330;9.104;2023-09-30T01:23:50;101866.03;;;15.59;98.42
3132;BME280;62090;52.330;9.104;2023-09-30T01:26:20;101824.34;;;15.35;98.24
3132;BME280;62090;52.330;9.104;2023-09-30T01:28:50;101844.25;;;15.44;97.84
3132;BME280;62090;52.330;9.104;2023-09-30T01:31:19;101867.56;;;15.51;98.25
3132;BME280;62090;52.330;9.104;2023-09-30T01:33:49;101866.50;;;15.43;98.84
3132;BME280;62090;52.330;9.104;2023-09-30T01:36:21;101868.16;;;15.41;99.16
3132;BME280;62090;52.330;9.104;2023-09-30T01:38:54;101805.84;;;15.11;98.88
3132;BME280;62090;52.330;9.104;2023-09-30T01:41:24;101837.75;;;15.22;98.33
3132;BME280;62090;52.330;9.104;2023-09-30T01:43:54;101875.00;;;15.41;98.17
3132;BME280;62090;52.330;9.104;2023-09-30T01:46:25;101857.34;;;15.18;97.99
3132;BME280;62090;52.330;9.104;2023-09-30T01:48:55;101852.31;;;15.23;98.46
3132;BME280;62090;52.330;9.104;2023-09-30T01:51:25;101868.16;;;15.41;98.44
3132;BME280;62090;52.330;9.104;2023-09-30T01:54:00;101855.31;;;15.41;98.28
3132;BME280;62090;52.330;9.104;2023-09-30T01:56:30;101865.53;;;15.38;97.98
3132;BME280;62090;52.330;9.104;2023-09-30T01:59:00;101774.03;;;14.70;98.72
3132;BME280;62090;52.330;9.104;2023-09-30T02:01:31;101787.91;;;14.76;99.20
3132;BME280;62090;52.330;9.104;2023-09-30T02:04:01;101868.81;;;15.33;98.88
3132;BME280;62090;52.330;9.104;2023-09-30T02:06:32;101834.84;;;15.08;99.45
3132;BME280;62090;52.330;9.104;2023-09-30T02:09:05;101877.28;;;15.29;99.57
3132;BME280;62090;52.330;9.104;2023-09-30T02:11:36;101872.94;;;15.26;99.81
3132;BME280;62090;52.330;9.104;2023-09-30T02:14:09;101875.56;;;15.29;99.73
3132;BME280;62090;52.330;9.104;2023-09-30T02:16:40;101876.09;;;15.14;99.95
3132;BME280;62090;52.330;9.104;2023-09-30T02:19:10;101862.34;;;15.12;100.00
3132;BME280;62090;52.330;9.104;2023-09-30T02:21:40;101865.59;;;15.05;100.00
3132;BME280;62090;52.330;9.104;2023-09-30T02:24:14;101779.28;;;14.40;100.00
3132;BME280;62090;52.330;9.104;2023-09-30T02:26:44;101876.44;;;14.94;100.00
3132;BME280;62090;52.330;9.104;2023-09-30T02:29:14;101833.88;;;14.67;100.00
3132;BME280;62090;52.330;9.104;2023-09-30T02:31:44;101883.41;;;14.99;100.00
3132;BME280;62090;52.330;9.104;2023-09-30T02:34:14;101766.31;;;14.35;100.00
3132;BME280;62090;52.330;9.104;2023-09-30T02:36:44;101893.16;;;15.12;100.00
3132;BME280;62090;52.330;9.104;2023-09-30T02:39:17;101866.22;;;14.97;100.00
3132;BME280;62090;52.330;9.104;2023-09-30T02:41:47;101817.56;;;14.65;100.00
3132;BME280;62090;52.330;9.104;2023-09-30T02:44:19;101898.16;;;15.06;100.00
3132;BME280;62090;52.330;9.104;2023-09-30T02:46:49;101858.97;;;14.80;100.00
3132;BME280;62090;52.330;9.104;2023-09-30T02:49:21;101835.50;;;14.64;100.00
3132;BME280;62090;52.330;9.104;2023-09-30T02:51:51;101869.25;;;14.80;100.00
3132;BME280;62090;52.330;9.104;2023-09-30T02:54:23;101895.38;;;14.99;100.00
3132;BME280;62090;52.330;9.104;2023-09-30T02:56:54;101898.94;;;15.04;100.00
3132;BME280;62090;52.330;9.104;2023-09-30T02:59:24;101900.59;;;15.02;100.00
3132;BME280;62090;52.330;9.104;2023-09-30T03:01:54;101895.16;;;14.90;100.00
3132;BME280;62090;52.330;9.104;2023-09-30T03:04:24;101892.56;;;14.88;100.00
3132;BME280;62090;52.330;9.104;2023-09-30T03:06:55;101893.31;;;14.84;100.00
3132;BME280;62090;52.330;9.104;2023-09-30T03:09:28;101895.19;;;14.91;100.00
3132;BME280;62090;52.330;9.104;2023-09-30T03:11:58;101835.16;;;14.52;100.00
3132;BME280;62090;52.330;9.104;2023-09-30T03:14:29;101911.47;;;14.92;100.00
3132;BME280;62090;52.330;9.104;2023-09-30T03:16:59;101902.16;;;14.95;100.00
3132;BME280;62090;52.330;9.104;2023-09-30T03:19:30;101849.03;;;14.60;100.00
3132;BME280;62090;52.330;9.104;2023-09-30T03:22:00;101853.25;;;14.56;100.00
3132;BME280;62090;52.330;9.104;2023-09-30T03:24:34;101895.06;;;14.85;100.00
3132;BME280;62090;52.330;9.104;2023-09-30T03:27:04;101904.34;;;14.80;100.00
3132;BME280;62090;52.330;9.104;2023-09-30T03:29:35;101881.34;;;14.52;100.00
3132;BME280;62090;52.330;9.104;2023-09-30T03:32:03;101853.78;;;14.45;100.00
3132;BME280;62090;52.330;9.104;2023-09-30T03:34:34;101883.53;;;14.69;100.00
3132;BME280;62090;52.330;9.104;2023-09-30T03:37:04;101881.91;;;14.73;100.00
3132;BME280;62090;52.330;9.104;2023-09-30T03:39:37;101850.63;;;14.55;100.00
3132;BME280;62090;52.330;9.104;2023-09-30T03:42:08;101883.25;;;14.59;100.00
3132;BME280;62090;52.330;9.104;2023-09-30T03:44:39;101898.88;;;14.68;100.00
3132;BME280;62090;52.330;9.104;2023-09-30T03:47:09;101907.34;;;14.64;100.00
3132;BME280;62090;52.330;9.104;2023-09-30T03:49:39;101906.19;;;14.54;100.00
3132;BME280;62090;52.330;9.104;2023-09-30T03:52:09;101875.88;;;14.40;100.00
3132;BME280;62090;52.330;9.104;2023-09-30T03:54:44;101890.94;;;14.59;100.00
3132;BME280;62090;52.330;9.104;2023-09-30T03:57:15;101898.38;;;14.50;100.00
3132;BME280;62090;52.330;9.104;2023-09-30T03:59:45;101883.78;;;14.47;100.00
3132;BME280;62090;52.330;9.104;2023-09-30T04:02:15;101874.13;;;14.38;100.00
3132;BME280;62090;52.330;9.104;2023-09-30T04:04:46;101891.53;;;14.49;100.00
3132;BME280;62090;52.330;9.104;2023-09-30T04:07:18;101876.44;;;14.29;100.00
3132;BME280;62090;52.330;9.104;2023-09-30T04:09:50;101880.13;;;14.38;100.00
3132;BME280;62090;52.330;9.104;2023-09-30T04:12:20;101860.97;;;14.26;100.00
3132;BME280;62090;52.330;9.104;2023-09-30T04:14:50;101870.75;;;14.40;100.00
3132;BME280;62090;52.330;9.104;2023-09-30T04:17:21;101903.22;;;14.70;100.00
3132;BME280;62090;52.330;9.104;2023-09-30T04:19:51;101902.44;;;14.73;100.00
3132;BME280;62090;52.330;9.104;2023-09-30T04:22:21;101891.94;;;14.65;100.00
3132;BME280;62090;52.330;9.104;2023-09-30T04:24:55;101910.31;;;14.80;100.00
3132;BME280;62090;52.330;9.104;2023-09-30T04:27:25;101873.00;;;14.59;100.00
3132;BME280;62090;52.330;9.104;2023-09-30T04:29:55;101899.34;;;14.86;100.00
3132;BME280;62090;52.330;9.104;2023-09-30T04:32:25;101892.59;;;14.90;100.00
3132;BME280;62090;52.330;9.104;2023-09-30T04:34:55;101894.28;;;14.89;100.00
3132;BME280;62090;52.330;9.104;2023-09-30T04:37:27;101915.59;;;14.85;100.00
3132;BME280;62090;52.330;9.104;2023-09-30T04:39:59;101899.28;;;14.83;100.00
3132;BME280;62090;52.330;9.104;2023-09-30T04:42:34;101895.66;;;14.75;100.00
3132;BME280;62090;52.330;9.104;2023-09-30T04:45:05;101884.66;;;14.48;100.00
3132;BME280;62090;52.330;9.104;2023-09-30T04:47:37;101892.19;;;14.42;100.00
3132;BME280;62090;52.330;9.104;2023-09-30T04:50:08;101878.13;;;14.29;100.00
3132;BME280;62090;52.330;9.104;2023-09-30T04:52:38;101906.88;;;14.47;100.00
3132;BME280;62090;52.330;9.104;2023-09-30T04:55:11;101911.31;;;14.53;100.00
3132;BME280;62090;52.330;9.104;2023-09-30T04:57:44;101878.38;;;14.36;100.00
3132;BME280;62090;52.330;9.104;2023-09-30T05:00:16;101911.19;;;14.50;100.00
3132;BME280;62090;52.330;9.104;2023-09-30T05:02:49;101888.50;;;14.33;100.00
3132;BME280;62090;52.330;9.104;2023-09-30T05:05:19;101918.66;;;14.41;100.00
3132;BME280;62090;52.330;9.104;2023-09-30T05:07:49;101912.66;;;14.40;100.00
3132;BME280;62090;52.330;9.104;2023-09-30T05:10:22;101909.44;;;14.47;100.00
3132;BME280;62090;52.330;9.104;2023-09-30T05:12:52;101912.06;;;14.49;100.00
3132;BME280;62090;52.330;9.104;2023-09-30T05:15:22;101904.06;;;14.38;100.00
3132;BME280;62090;52.330;9.104;2023-09-30T05:17:52;101894.81;;;14.45;100.00
3132;BME280;62090;52.330;9.104;2023-09-30T05:20:22;101891.25;;;14.40;100.00
3132;BME280;62090;52.330;9.104;2023-09-30T05:22:52;101919.13;;;14.57;100.00
3132;BME280;62090;52.330;9.104;2023-09-30T05:25:25;101900.94;;;14.50;100.00
3132;BME280;62090;52.330;9.104;2023-09-30T05:27:55;101909.56;;;14.52;100.00
3132;BME280;62090;52.330;9.104;2023-09-30T05:30:25;101926.72;;;14.54;100.00
3132;BME280;62090;52.330;9.104;2023-09-30T05:32:55;101922.31;;;14.49;100.00
3132;BME280;62090;52.330;9.104;2023-09-30T05:35:25;101924.13;;;14.53;100.00
3132;BME280;62090;52.330;9.104;2023-09-30T05:37:55;101910.91;;;14.39;100.00
3132;BME280;62090;52.330;9.104;2023-09-30T05:40:28;101911.19;;;14.48;100.00
3132;BME280;62090;52.330;9.104;2023-09-30T05:42:58;101933.56;;;14.54;100.00
3132;BME280;62090;52.330;9.104;2023-09-30T05:45:31;101831.13;;;13.99;100.00
3132;BME280;62090;52.330;9.104;2023-09-30T05:48:03;101937.78;;;14.52;100.00
3132;BME280;62090;52.330;9.104;2023-09-30T05:50:34;101953.88;;;14.46;100.00
3132;BME280;62090;52.330;9.104;2023-09-30T05:53:05;101963.59;;;14.58;100.00
3132;BME280;62090;52.330;9.104;2023-09-30T05:55:40;101969.59;;;14.58;100.00
3132;BME280;62090;52.330;9.104;2023-09-30T05:58:13;101947.66;;;14.38;100.00
3132;BME280;62090;52.330;9.104;2023-09-30T06:00:43;101979.75;;;14.55;100.00
3132;BME280;62090;52.330;9.104;2023-09-30T06:03:13;101967.00;;;14.57;100.00
3132;BME280;62090;52.330;9.104;2023-09-30T06:05:43;101969.63;;;14.60;100.00
3132;BME280;62090;52.330;9.104;2023-09-30T06:08:14;101976.31;;;14.55;100.00
3132;BME280;62090;52.330;9.104;2023-09-30T06:10:47;101977.06;;;14.51;100.00
3132;BME280;62090;52.330;9.104;2023-09-30T06:13:17;101982.84;;;14.44;100.00
3132;BME280;62090;52.330;9.104;2023-09-30T06:15:48;101988.78;;;14.41;100.00
3132;BME280;62090;52.330;9.104;2023-09-30T06:18:18;101962.78;;;14.30;100.00
3132;BME280;62090;52.330;9.104;2023-09-30T06:20:48;101932.66;;;14.23;100.00
3132;BME280;62090;52.330;9.104;2023-09-30T06:23:18;101994.28;;;14.55;100.00
3132;BME280;62090;52.330;9.104;2023-09-30T06:25:50;101979.63;;;14.51;100.00
3132;BME280;62090;52.330;9.104;2023-09-30T06:28:21;101993.88;;;14.71;100.00
3132;BME280;62090;52.330;9.104;2023-09-30T06:30:53;101989.97;;;14.84;100.00
3132;BME280;62090;52.330;9.104;2023-09-30T06:33:23;101872.78;;;14.21;100.00
3132;BME280;62090;52.330;9.104;2023-09-30T06:35:56;101975.56;;;14.89;100.00
3132;BME280;62090;52.330;9.104;2023-09-30T06:38:29;101967.81;;;14.87;100.00
3132;BME280;62090;52.330;9.104;2023-09-30T06:41:01;101993.06;;;15.03;100.00
3132;BME280;62090;52.330;9.104;2023-09-30T06:43:31;101987.88;;;15.02;100.00
3132;BME280;62090;52.330;9.104;2023-09-30T06:46:05;101985.50;;;15.09;100.00
3132;BME280;62090;52.330;9.104;2023-09-30T06:48:36;101944.75;;;14.89;100.00
3132;BME280;62090;52.330;9.104;2023-09-30T06:51:08;102001.47;;;15.31;100.00
3132;BME280;62090;52.330;9.104;2023-09-30T06:53:42;101986.66;;;15.20;100.00
3132;BME280;62090;52.330;9.104;2023-09-30T06:56:15;101997.97;;;15.29;100.00
3132;BME280;62090;52.330;9.104;2023-09-30T06:58:45;102009.13;;;15.28;100.00
3132;BME280;62090;52.330;9.104;2023-09-30T07:01:15;102013.38;;;15.29;100.00
3132;BME280;62090;52.330;9.104;2023-09-30T07:03:46;102005.66;;;15.27;100.00
3132;BME280;62090;52.330;9.104;2023-09-30T07:06:22;102014.78;;;15.49;100.00
3132;BME280;62090;52.330;9.104;2023-09-30T07:08:52;102008.19;;;15.58;100.00
3132;BME280;62090;52.330;9.104;2023-09-30T07:11:31;101936.94;;;15.18;100.00
3132;BME280;62090;52.330;9.104;2023-09-30T07:14:02;102024.84;;;15.74;100.00
3132;BME280;62090;52.330;9.104;2023-09-30T07:16:32;102016.31;;;15.75;100.00
3132;BME280;62090;52.330;9.104;2023-09-30T07:19:02;101980.88;;;15.62;100.00
3132;BME280;62090;52.330;9.104;2023-09-30T07:21:32;101956.53;;;15.48;100.00
3132;BME280;62090;52.330;9.104;2023-09-30T07:24:05;102033.41;;;16.11;100.00
3132;BME280;62090;52.330;9.104;2023-09-30T07:26:38;102010.19;;;16.08;100.00
3132;BME280;62090;52.330;9.104;2023-09-30T07:29:09;102041.31;;;16.20;100.00
3132;BME280;62090;52.330;9.104;2023-09-30T07:31:39;102050.84;;;16.24;100.00
3132;BME280;62090;52.330;9.104;2023-09-30T07:34:09;102021.00;;;15.93;100.00
3132;BME280;62090;52.330;9.104;2023-09-30T07:36:39;102036.22;;;16.21;100.00
3132;BME280;62090;52.330;9.104;2023-09-30T07:39:09;102049.22;;;16.29;100.00
3132;BME280;62090;52.330;9.104;2023-09-30T07:41:42;102028.59;;;16.26;100.00
3132;BME280;62090;52.330;9.104;2023-09-30T07:44:12;102024.47;;;16.32;100.00
3132;BME280;62090;52.330;9.104;2023-09-30T07:46:42;102020.19;;;16.34;100.00
3132;BME280;62090;52.330;9.104;2023-09-30T07:49:14;102052.31;;;16.52;100.00
3132;BME280;62090;52.330;9.104;2023-09-30T07:51:44;102041.00;;;16.45;100.00
3132;BME280;62090;52.330;9.104;2023-09-30T07:54:14;102049.94;;;16.59;100.00
3132;BME280;62090;52.330;9.104;2023-09-30T07:56:59;102028.34;;;16.54;100.00
3132;BME280;62090;52.330;9.104;2023-09-30T07:59:29;102012.84;;;16.51;100.00
3132;BME280;62090;52.330;9.104;2023-09-30T08:02:01;102006.03;;;16.53;99.30
3132;BME280;62090;52.330;9.104;2023-09-30T08:04:31;102050.38;;;16.82;98.50
3132;BME280;62090;52.330;9.104;2023-09-30T08:07:01;102047.94;;;16.88;99.04
3132;BME280;62090;52.330;9.104;2023-09-30T08:09:31;102037.50;;;16.80;97.92
3132;BME280;62090;52.330;9.104;2023-09-30T08:12:05;102064.50;;;17.01;98.53
3132;BME280;62090;52.330;9.104;2023-09-30T08:14:35;102065.34;;;17.00;98.32
3132;BME280;62090;52.330;9.104;2023-09-30T08:17:05;102044.50;;;16.87;96.99
3132;BME280;62090;52.330;9.104;2023-09-30T08:19:35;102063.88;;;17.12;97.00
3132;BME280;62090;52.330;9.104;2023-09-30T08:22:05;102051.75;;;17.07;95.58
3132;BME280;62090;52.330;9.104;2023-09-30T08:24:36;102051.88;;;17.13;96.04
3132;BME280;62090;52.330;9.104;2023-09-30T08:27:09;102047.56;;;17.13;96.40
3132;BME280;62090;52.330;9.104;2023-09-30T08:29:39;102074.50;;;17.30;95.16
3132;BME280;62090;52.330;9.104;2023-09-30T08:32:09;102086.69;;;17.39;94.67
3132;BME280;62090;52.330;9.104;2023-09-30T08:34:39;102077.22;;;17.40;94.23
3132;BME280;62090;52.330;9.104;2023-09-30T08:37:09;102067.72;;;17.36;94.03
3132;BME280;62090;52.330;9.104;2023-09-30T08:39:39;102092.00;;;17.48;93.84
3132;BME280;62090;52.330;9.104;2023-09-30T08:42:12;102070.25;;;17.33;92.76
3132;BME280;62090;52.330;9.104;2023-09-30T08:44:42;102080.78;;;17.46;92.12
3132;BME280;62090;52.330;9.104;2023-09-30T08:47:13;102074.03;;;17.53;91.50
3132;BME280;62090;52.330;9.104;2023-09-30T08:49:44;102046.41;;;17.44;90.58
3132;BME280;62090;52.330;9.104;2023-09-30T08:52:14;102051.03;;;17.60;90.84
3132;BME280;62090;52.330;9.104;2023-09-30T08:54:44;102088.34;;;17.84;89.60
3132;BME280;62090;52.330;9.104;2023-09-30T08:57:19;102054.72;;;17.78;89.47
3132;BME280;62090;52.330;9.104;2023-09-30T08:59:49;102081.72;;;17.99;87.94
3132;BME280;62090;52.330;9.104;2023-09-30T09:02:20;102082.63;;;18.01;88.39
3132;BME280;62090;52.330;9.104;2023-09-30T09:04:50;102093.19;;;18.18;87.52
3132;BME280;62090;52.330;9.104;2023-09-30T09:07:19;102092.31;;;18.18;86.18
3132;BME280;62090;52.330;9.104;2023-09-30T09:10:03;102104.28;;;18.12;86.03
3132;BME280;62090;52.330;9.104;2023-09-30T09:12:38;102092.25;;;18.13;86.42
3132;BME280;62090;52.330;9.104;2023-09-30T09:15:20;102091.47;;;18.20;87.55
3132;BME280;62090;52.330;9.104;2023-09-30T09:17:51;102106.34;;;18.36;88.10
3132;BME280;62090;52.330;9.104;2023-09-30T09:20:22;102054.53;;;18.24;86.38
3132;BME280;62090;52.330;9.104;2023-09-30T09:22:54;102080.53;;;18.36;84.56
3132;BME280;62090;52.330;9.104;2023-09-30T09:25:27;102064.91;;;18.26;85.22
3132;BME280;62090;52.330;9.104;2023-09-30T09:27:59;102056.59;;;18.45;85.88
3132;BME280;62090;52.330;9.104;2023-09-30T09:30:29;102082.69;;;18.65;84.62
3132;BME280;62090;52.330;9.104;2023-09-30T09:33:01;102092.13;;;18.63;83.09
3132;BME280;62090;52.330;9.104;2023-09-30T09:35:33;102051.41;;;18.46;82.15
3132;BME280;62090;52.330;9.104;2023-09-30T09:38:04;102090.56;;;18.75;82.35
3132;BME280;62090;52.330;9.104;2023-09-30T09:40:36;102041.06;;;18.43;84.29
3132;BME280;62090;52.330;9.104;2023-09-30T09:43:10;102068.09;;;18.70;81.86
3132;BME280;62090;52.330;9.104;2023-09-30T09:45:40;102061.19;;;18.69;80.46
3132;BME280;62090;52.330;9.104;2023-09-30T09:48:11;102092.47;;;18.93;81.28
3132;BME280;62090;52.330;9.104;2023-09-30T09:50:41;102091.66;;;18.92;80.53
3132;BME280;62090;52.330;9.104;2023-09-30T09:53:14;102092.47;;;18.90;79.98
3132;BME280;62090;52.330;9.104;2023-09-30T09:55:46;102083.88;;;18.91;79.21
3132;BME280;62090;52.330;9.104;2023-09-30T09:58:20;102070.91;;;18.88;80.00
3132;BME280;62090;52.330;9.104;2023-09-30T10:00:50;102070.09;;;18.92;80.93
3132;BME280;62090;52.330;9.104;2023-09-30T10:03:20;102033.00;;;18.85;79.46
3132;BME280;62090;52.330;9.104;2023-09-30T10:05:51;102001.72;;;18.63;77.70
3132;BME280;62090;52.330;9.104;2023-09-30T10:08:30;102058.97;;;18.97;77.51
3132;BME280;62090;52.330;9.104;2023-09-30T10:11:01;102033.88;;;18.86;78.31
3132;BME280;62090;52.330;9.104;2023-09-30T10:13:53;102072.19;;;19.26;78.45
3132;BME280;62090;52.330;9.104;2023-09-30T10:16:47;102082.59;;;19.35;78.51
3132;BME280;62090;52.330;9.104;2023-09-30T10:19:20;102072.31;;;19.38;77.68
3132;BME280;62090;52.330;9.104;2023-09-30T10:24:52;102063.56;;;19.24;77.74
3132;BME280;62090;52.330;9.104;2023-09-30T10:27:35;102049.88;;;19.37;77.29
3132;BME280;62090;52.330;9.104;2023-09-30T10:30:10;102089.81;;;19.64;76.74
3132;BME280;62090;52.330;9.104;2023-09-30T10:33:07;102068.22;;;19.60;75.81
3132;BME280;62090;52.330;9.104;2023-09-30T10:35:48;102053.50;;;19.52;74.72
3132;BME280;62090;52.330;9.104;2023-09-30T10:38:39;102116.66;;;19.79;73.48
3132;BME280;62090;52.330;9.104;2023-09-30T10:41:10;102102.06;;;19.85;73.03
3132;BME280;62090;52.330;9.104;2023-09-30T10:43:41;102098.75;;;20.02;73.65
3132;BME280;62090;52.330;9.104;2023-09-30T10:46:32;102079.72;;;19.97;74.33
3132;BME280;62090;52.330;9.104;2023-09-30T10:49:15;102087.50;;;19.97;72.70
3132;BME280;62090;52.330;9.104;2023-09-30T10:51:47;102029.41;;;19.59;72.56
3132;BME280;62090;52.330;9.104;2023-09-30T10:54:22;102078.00;;;19.99;73.40
3132;BME280;62090;52.330;9.104;2023-09-30T10:56:53;102067.75;;;20.13;71.71
3132;BME280;62090;52.330;9.104;2023-09-30T10:59:27;102065.25;;;20.27;71.91
3132;BME280;62090;52.330;9.104;2023-09-30T11:02:00;102080.13;;;20.55;71.02
3132;BME280;62090;52.330;9.104;2023-09-30T11:04:45;102048.16;;;20.53;71.40
3132;BME280;62090;52.330;9.104;2023-09-30T11:07:22;102031.75;;;20.51;69.10
3132;BME280;62090;52.330;9.104;2023-09-30T11:09:53;102086.28;;;20.86;67.08
3132;BME280;62090;52.330;9.104;2023-09-30T11:12:24;102083.66;;;20.78;65.52
3132;BME280;62090;52.330;9.104;2023-09-30T11:14:59;102051.69;;;20.75;62.70
3132;BME280;62090;52.330;9.104;2023-09-30T11:17:32;102077.66;;;20.94;63.18
3132;BME280;62090;52.330;9.104;2023-09-30T11:20:03;102086.28;;;20.87;64.57
3132;BME280;62090;52.330;9.104;2023-09-30T11:22:34;102078.47;;;20.80;65.18
3132;BME280;62090;52.330;9.104;2023-09-30T11:25:06;102069.78;;;20.61;65.22
3132;BME280;62090;52.330;9.104;2023-09-30T11:27:44;102068.97;;;20.71;66.19
3132;BME280;62090;52.330;9.104;2023-09-30T11:30:14;102036.94;;;20.57;64.97
3132;BME280;62090;52.330;9.104;2023-09-30T11:32:47;102057.81;;;21.01;66.33
3132;BME280;62090;52.330;9.104;2023-09-30T11:35:23;102059.66;;;21.29;66.03
3132;BME280;62090;52.330;9.104;2023-09-30T11:37:53;102035.44;;;21.20;66.75
3132;BME280;62090;52.330;9.104;2023-09-30T11:40:23;102045.81;;;21.35;66.36
3132;BME280;62090;52.330;9.104;2023-09-30T11:43:08;102069.16;;;21.53;66.42
3132;BME280;62090;52.330;9.104;2023-09-30T11:45:39;102064.84;;;21.57;65.47
3132;BME280;62090;52.330;9.104;2023-09-30T11:48:19;102040.63;;;21.47;65.39
3132;BME280;62090;52.330;9.104;2023-09-30T11:50:49;101998.25;;;21.15;66.27
3132;BME280;62090;52.330;9.104;2023-09-30T11:53:20;102066.56;;;21.68;66.12
3132;BME280;62090;52.330;9.104;2023-09-30T11:55:50;102075.22;;;21.79;64.43
3132;BME280;62090;52.330;9.104;2023-09-30T11:58:23;102074.34;;;21.85;64.42
3132;BME280;62090;52.330;9.104;2023-09-30T12:00:57;102022.47;;;21.56;64.47
3132;BME280;62090;52.330;9.104;2023-09-30T12:03:30;102071.78;;;21.83;64.32
3132;BME280;62090;52.330;9.104;2023-09-30T12:06:03;102054.47;;;21.55;62.32
3132;BME280;62090;52.330;9.104;2023-09-30T12:08:34;102052.72;;;21.48;62.81
3132;BME280;62090;52.330;9.104;2023-09-30T12:11:04;102036.31;;;21.38;63.79
3132;BME280;62090;52.330;9.104;2023-09-30T12:13:34;102024.16;;;21.21;63.20
3132;BME280;62090;52.330;9.104;2023-09-30T12:16:05;102049.25;;;21.25;64.03
3132;BME280;62090;52.330;9.104;2023-09-30T12:18:37;102050.09;;;21.21;63.89
3132;BME280;62090;52.330;9.104;2023-09-30T12:21:09;102041.50;;;21.25;64.76
3132;BME280;62090;52.330;9.104;2023-09-30T12:23:40;102021.59;;;21.19;64.01
3132;BME280;62090;52.330;9.104;2023-09-30T12:26:10;102033.66;;;21.13;63.93
3132;BME280;62090;52.330;9.104;2023-09-30T12:28:45;102029.38;;;21.18;64.66
3132;BME280;62090;52.330;9.104;2023-09-30T12:31:15;101987.84;;;20.98;64.71
3132;BME280;62090;52.330;9.104;2023-09-30T12:33:48;102014.69;;;21.27;64.64
3132;BME280;62090;52.330;9.104;2023-09-30T12:36:19;102010.34;;;21.22;64.22
3132;BME280;62090;52.330;9.104;2023-09-30T12:38:49;101942.03;;;20.86;64.20
3132;BME280;62090;52.330;9.104;2023-09-30T12:41:19;101893.63;;;20.58;64.46
3132;BME280;62090;52.330;9.104;2023-09-30T12:43:48;102014.66;;;21.26;65.44
3132;BME280;62090;52.330;9.104;2023-09-30T12:46:20;102012.09;;;21.35;62.76
3132;BME280;62090;52.330;9.104;2023-09-30T12:48:54;101991.34;;;21.24;62.73
3132;BME280;62090;52.330;9.104;2023-09-30T12:51:24;101954.13;;;20.93;61.54
3132;BME280;62090;52.330;9.104;2023-09-30T12:53:54;102018.13;;;21.22;61.20
3132;BME280;62090;52.330;9.104;2023-09-30T12:56:24;101986.09;;;21.01;61.54
3132;BME280;62090;52.330;9.104;2023-09-30T12:58:56;101984.41;;;21.08;60.49
3132;BME280;62090;52.330;9.104;2023-09-30T13:01:26;101973.13;;;21.11;62.14
3132;BME280;62090;52.330;9.104;2023-09-30T13:04:05;101963.66;;;21.13;62.11
3132;BME280;62090;52.330;9.104;2023-09-30T13:06:35;101905.72;;;20.83;61.99
3132;BME280;62090;52.330;9.104;2023-09-30T13:09:05;101969.72;;;21.28;62.02
3132;BME280;62090;52.330;9.104;2023-09-30T13:11:36;102001.72;;;21.39;61.78
3132;BME280;62090;52.330;9.104;2023-09-30T13:14:06;102006.03;;;21.27;62.07
3132;BME280;62090;52.330;9.104;2023-09-30T13:16:36;101999.97;;;21.26;62.02
3132;BME280;62090;52.330;9.104;2023-09-30T13:19:09;102006.91;;;21.44;62.21
3132;BME280;62090;52.330;9.104;2023-09-30T13:21:39;101991.34;;;21.39;61.16